Time;durP1;ratioP1;P1;durP2;ratioP2;P2;SDS_P1;SDS_P2;PMS_P1;PMS_P2;Temp;Humidity;BMP_temperature;BMP_pressure;BME280_temperature;BME280_humidity;BME280_pressure;Samples;Min_cycle;Max_cycle;Signal;HPM_P1;HPM_P2
2024/02/02 02:52:01;;;;;;;5.05;1.30;;;;;;;8.13;90.58;101828.38;6213783;23;20020;-89
2024/02/02 03:03:27;;;;;;;6.72;1.63;;;;;;;8.10;90.63;101828.22;6216697;23;20081;-89
2024/02/02 03:07:05;;;;;;;;;;;;;;;;;;;;;
2024/02/02 03:18:06;;;;;;;1.38;1.00;;;;;;;8.17;90.38;101825.88;6166587;23;20071;-89
2024/02/02 03:29:20;;;;;;;3.15;0.98;;;;;;;8.27;90.36;101824.84;6233555;23;20018;-88
2024/02/02 03:32:34;;;;;;;;;;;;;;;;;;;;;
2024/02/02 03:35:49;;;;;;;4.47;1.42;;;;;;;8.19;90.34;101816.41;6218221;23;20068;-89
2024/02/02 03:43:17;;;;;;;;;;;;;;;;;;;;;
2024/02/02 04:44:52;;;;;;;5.25;1.92;;;;;;;8.27;91.23;101731.72;6186136;23;20106;-76
2024/02/02 04:47:17;;;;;;;8.65;1.88;;;;;;;8.42;90.90;101722.44;6186174;23;20447;-76
2024/02/02 04:49:43;;;;;;;3.22;2.05;;;;;;;8.38;90.93;101722.25;6186324;23;20062;-76
2024/02/02 04:52:08;;;;;;;3.53;1.50;;;;;;;8.41;90.12;101721.66;6200836;23;20008;-76
2024/02/02 04:54:34;;;;;;;5.43;1.60;;;;;;;8.35;90.80;101714.06;6199168;23;20019;-76
2024/02/02 04:56:59;;;;;;;11.35;2.42;;;;;;;8.46;90.17;101718.81;6201064;23;20008;-76
2024/02/02 04:59:25;;;;;;;7.30;1.90;;;;;;;8.40;90.37;101721.97;6192987;23;20008;-76
2024/02/02 05:01:50;;;;;;;4.88;1.98;;;;;;;8.37;91.09;101709.16;6194824;23;20017;-75
2024/02/02 05:04:17;;;;;;;7.93;2.42;;;;;;;8.41;91.07;101712.81;6210484;23;20399;-77
2024/02/02 05:06:42;;;;;;;6.57;2.45;;;;;;;8.37;91.15;101714.53;6186257;23;20382;-77
2024/02/02 05:09:08;;;;;;;5.28;2.15;;;;;;;8.52;90.90;101703.34;6180535;23;20067;-76
2024/02/02 05:11:33;;;;;;;2.80;1.48;;;;;;;8.47;90.47;101700.81;6155432;23;20474;-77
2024/02/02 05:13:59;;;;;;;4.15;2.15;;;;;;;8.50;90.93;101695.59;6211097;23;20030;-76
2024/02/02 05:16:27;;;;;;;12.25;2.92;;;;;;;8.50;90.41;101684.88;6178647;23;20391;-77
2024/02/02 05:18:53;;;;;;;6.43;2.17;;;;;;;8.53;91.03;101680.78;6179021;23;20005;-76
2024/02/02 05:21:18;;;;;;;5.60;2.30;;;;;;;8.44;90.90;101702.22;6204720;23;20064;-77
2024/02/02 05:23:44;;;;;;;7.20;3.10;;;;;;;8.39;91.48;101694.34;6214638;23;20378;-77
2024/02/02 05:26:09;;;;;;;6.35;2.83;;;;;;;8.33;92.23;101687.53;6211391;23;20439;-77
2024/02/02 05:28:35;;;;;;;6.15;2.63;;;;;;;8.51;92.34;101673.03;6160603;23;20009;-77
2024/02/02 05:31:01;;;;;;;11.80;2.85;;;;;;;8.46;91.73;101670.50;6178709;23;20375;-76
2024/02/02 05:33:26;;;;;;;6.70;2.40;;;;;;;8.47;92.04;101665.94;6210460;23;20016;-77
2024/02/02 05:35:52;;;;;;;6.68;2.10;;;;;;;8.47;92.24;101669.41;6213310;23;20011;-76
2024/02/02 05:38:17;;;;;;;11.63;3.92;;;;;;;8.43;92.40;101663.09;6177943;23;20087;-76
2024/02/02 05:40:42;;;;;;;15.32;2.92;;;;;;;8.50;91.77;101649.97;6215405;23;20047;-76
2024/02/02 05:43:10;;;;;;;4.35;2.58;;;;;;;8.50;92.09;101643.81;6215753;23;20370;-77
2024/02/02 05:45:36;;;;;;;7.88;3.40;;;;;;;8.40;92.24;101650.28;6208906;23;20016;-76
2024/02/02 05:48:01;;;;;;;6.05;3.15;;;;;;;8.38;92.85;101624.88;6219527;23;20049;-76
2024/02/02 05:50:27;;;;;;;8.00;3.15;;;;;;;8.31;92.05;101619.19;6219441;23;20343;-76
2024/02/02 05:52:52;;;;;;;8.70;3.97;;;;;;;8.29;93.63;101611.44;6188005;23;20318;-76
2024/02/02 05:55:18;;;;;;;10.00;4.18;;;;;;;8.46;92.64;101600.72;6211799;23;20459;-77
2024/02/02 05:57:44;;;;;;;15.13;4.18;;;;;;;8.32;93.25;101621.56;6206716;23;20005;-77
2024/02/02 06:00:10;;;;;;;8.52;2.67;;;;;;;8.30;93.25;101613.06;6202392;23;20455;-76
2024/02/02 06:02:36;;;;;;;9.70;3.53;;;;;;;8.23;93.56;101626.09;6213597;23;20027;-76
2024/02/02 06:05:02;;;;;;;8.27;3.90;;;;;;;8.14;94.29;101639.50;6214022;23;20005;-76
2024/02/02 06:07:28;;;;;;;10.20;3.17;;;;;;;8.14;95.51;101642.19;6181044;23;20004;-76
2024/02/02 06:09:53;;;;;;;13.40;3.97;;;;;;;8.18;94.75;101635.09;6222081;23;20075;-76
2024/02/02 06:12:19;;;;;;;8.68;3.88;;;;;;;8.30;94.74;101645.25;6206078;23;20194;-76
2024/02/02 06:14:44;;;;;;;7.28;3.15;;;;;;;8.34;94.46;101629.31;6153455;23;20348;-76
2024/02/02 06:17:10;;;;;;;5.97;3.92;;;;;;;8.41;94.16;101616.19;6203541;23;20447;-77
2024/02/02 06:19:36;;;;;;;7.88;3.45;;;;;;;8.57;92.87;101619.97;6177524;23;20110;-77
2024/02/02 06:22:02;;;;;;;8.85;3.15;;;;;;;8.38;93.56;101624.88;6202245;23;20039;-77
2024/02/02 06:24:27;;;;;;;8.23;4.32;;;;;;;8.30;94.02;101618.41;6205106;23;20020;-76
2024/02/02 06:26:53;;;;;;;8.68;4.18;;;;;;;8.34;93.80;101610.53;6206318;23;20000;-76
2024/02/02 06:29:19;;;;;;;10.27;3.67;;;;;;;8.34;94.48;101599.78;6217165;23;20406;-76
2024/02/02 06:31:44;;;;;;;10.13;3.05;;;;;;;8.46;93.23;101614.13;6209104;23;20321;-76
2024/02/02 06:34:10;;;;;;;5.10;2.80;;;;;;;8.52;93.04;101601.34;6218850;23;20016;-76
2024/02/02 06:36:35;;;;;;;8.48;3.25;;;;;;;8.52;92.94;101604.81;6201211;23;20004;-75
2024/02/02 06:39:01;;;;;;;7.80;3.75;;;;;;;8.43;93.07;101598.66;6175388;23;20050;-77
2024/02/02 06:41:27;;;;;;;9.90;3.15;;;;;;;8.45;93.04;101582.25;6205678;23;20420;-76
2024/02/02 06:43:52;;;;;;;10.35;3.35;;;;;;;8.41;92.81;101584.78;6207926;23;20356;-76
2024/02/02 06:46:18;;;;;;;17.23;4.07;;;;;;;8.23;93.38;101579.72;6172963;23;20001;-77
2024/02/02 06:48:44;;;;;;;6.60;2.47;;;;;;;8.32;93.28;101581.31;6175116;23;20423;-76
2024/02/02 06:51:10;;;;;;;10.38;2.92;;;;;;;8.23;93.73;101574.34;6202330;23;20004;-76
2024/02/02 06:53:36;;;;;;;8.20;3.35;;;;;;;8.21;93.76;101563.91;6202665;23;20017;-76
2024/02/02 06:56:28;;;;;;;7.03;3.35;;;;;;;8.23;93.46;101559.81;6176335;23;20008;-76
2024/02/02 06:58:54;;;;;;;12.90;3.38;;;;;;;8.15;93.66;101570.53;6176233;23;20481;-77
2024/02/02 07:01:20;;;;;;;6.82;3.05;;;;;;;8.28;93.78;101556.22;6202827;23;20090;-76
2024/02/02 07:03:46;;;;;;;9.68;2.95;;;;;;;8.29;93.23;101557.78;6174755;23;20015;-76
2024/02/02 07:06:13;;;;;;;11.20;3.58;;;;;;;8.23;93.70;101556.34;6201598;23;20004;-76
2024/02/02 07:08:39;;;;;;;5.03;3.10;;;;;;;8.09;93.91;101553.81;6201156;23;20012;-76
2024/02/02 07:11:30;;;;;;;9.68;3.83;;;;;;;8.35;92.94;101547.69;6201623;23;20079;-77
2024/02/02 07:13:59;;;;;;;10.20;3.47;;;;;;;8.29;93.12;101533.63;6208288;23;20017;-76
2024/02/02 07:16:30;;;;;;;8.30;2.70;;;;;;;8.24;93.11;101541.84;6204767;23;20470;-77
2024/02/02 07:18:56;;;;;;;11.70;3.28;;;;;;;8.35;92.46;101545.78;6175338;23;20440;-76
2024/02/02 07:21:31;;;;;;;7.60;3.42;;;;;;;8.27;92.66;101540.41;6200796;23;19993;-77
2024/02/02 07:23:58;;;;;;;10.68;3.42;;;;;;;8.25;92.90;101537.25;6204201;23;20067;-76
2024/02/02 07:26:29;;;;;;;6.55;3.28;;;;;;;8.23;93.32;101552.88;6203216;23;20008;-76
2024/02/02 07:28:55;;;;;;;6.90;3.35;;;;;;;8.22;93.13;101544.03;6175310;23;20019;-76
2024/02/02 07:31:34;;;;;;;12.02;3.92;;;;;;;8.36;92.73;101536.66;6184551;23;20004;-77
2024/02/02 07:34:05;;;;;;;5.97;3.38;;;;;;;8.28;94.77;101529.41;6179389;23;20091;-69
2024/02/02 07:36:33;;;;;;;12.20;3.15;;;;;;;8.42;94.45;101534.59;6204832;23;20008;-69
2024/02/02 07:38:59;;;;;;;10.65;3.50;;;;;;;8.56;92.96;101525.22;6221799;23;20000;-76
2024/02/02 07:41:28;;;;;;;9.20;3.80;;;;;;;8.60;91.55;101514.63;6220917;23;20012;-75
2024/02/02 07:43:57;;;;;;;10.75;2.95;;;;;;;8.69;90.46;101496.63;6184572;23;20020;-76
2024/02/02 07:46:24;;;;;;;8.93;4.10;;;;;;;8.51;90.71;101512.00;6211011;23;20013;-77
2024/02/02 07:48:51;;;;;;;7.47;3.50;;;;;;;8.38;91.75;101507.56;6159858;23;20087;-76
2024/02/02 07:51:22;;;;;;;8.10;3.65;;;;;;;8.33;91.38;101505.06;6185081;23;20019;-76
2024/02/02 07:53:48;;;;;;;7.07;3.15;;;;;;;8.29;92.04;101517.53;6211177;23;20044;-76
2024/02/02 07:56:15;;;;;;;11.90;4.10;;;;;;;8.42;91.30;101523.84;6220030;23;19996;-76
2024/02/02 07:58:41;;;;;;;10.55;4.03;;;;;;;8.43;91.36;101510.09;6221109;23;20016;-76
2024/02/02 08:01:09;;;;;;;15.70;4.28;;;;;;;8.46;91.23;101509.47;6160121;23;20062;-76
2024/02/02 08:03:35;;;;;;;8.88;3.67;;;;;;;8.43;91.11;101510.09;6211249;23;20024;-76
2024/02/02 08:06:01;;;;;;;10.90;4.10;;;;;;;8.35;91.64;101494.81;6209264;23;20004;-76
2024/02/02 08:08:30;;;;;;;11.63;5.15;;;;;;;8.43;91.47;101490.53;6184380;23;20016;-76
2024/02/02 08:10:55;;;;;;;12.68;3.65;;;;;;;8.54;90.91;101492.56;6211420;23;20000;-76
2024/02/02 08:13:22;;;;;;;10.05;3.42;;;;;;;8.54;90.87;101508.66;6210929;23;20020;-76
2024/02/02 08:15:48;;;;;;;12.90;4.65;;;;;;;8.46;91.03;101503.31;6211986;23;20047;-76
2024/02/02 08:18:13;;;;;;;10.18;3.47;;;;;;;8.43;91.68;101506.63;6223520;23;20009;-76
2024/02/02 08:20:39;;;;;;;10.60;4.53;;;;;;;8.32;92.30;101503.50;6184830;23;20427;-76
2024/02/02 08:23:04;;;;;;;13.70;3.60;;;;;;;8.20;93.26;101496.06;6158987;23;20012;-76
2024/02/02 08:25:30;;;;;;;18.77;4.95;;;;;;;8.31;92.89;101493.06;6187076;23;20001;-76
2024/02/02 08:27:56;;;;;;;10.23;3.97;;;;;;;8.46;92.43;101488.00;6213857;23;20008;-76
2024/02/02 08:30:24;;;;;;;11.43;3.78;;;;;;;8.51;92.27;101503.94;6185372;23;20027;-76
2024/02/02 08:32:51;;;;;;;15.98;4.22;;;;;;;8.45;93.04;101493.69;6222662;23;20515;-76
2024/02/02 08:35:24;;;;;;;7.10;4.40;;;;;;;8.50;93.79;101494.28;6213083;23;20004;-76
2024/02/02 08:37:54;;;;;;;8.32;4.25;;;;;;;8.50;93.91;101493.50;6223219;23;20036;-76
2024/02/02 08:40:38;;;;;;;9.95;4.03;;;;;;;8.39;94.67;101474.28;6213123;23;20447;-77
2024/02/02 08:43:21;;;;;;;10.35;4.13;;;;;;;8.59;93.71;101472.81;6185677;23;20009;-76
2024/02/02 08:45:49;;;;;;;11.98;4.20;;;;;;;8.47;94.81;101470.78;6213230;23;20040;-76
2024/02/02 08:48:39;;;;;;;11.98;4.28;;;;;;;8.39;95.38;101462.75;6213295;23;20035;-76
2024/02/02 08:51:23;;;;;;;5.35;3.13;;;;;;;8.33;96.45;101472.06;6185682;23;20007;-76
2024/02/02 08:53:58;;;;;;;6.93;3.75;;;;;;;8.34;96.37;101461.03;6186472;23;20047;-76
2024/02/02 08:56:24;;;;;;;10.63;4.63;;;;;;;8.39;96.08;101468.13;6213447;23;20088;-76
2024/02/02 08:58:49;;;;;;;10.75;3.58;;;;;;;8.36;96.87;101464.19;6223179;23;20007;-76
2024/02/02 09:01:40;;;;;;;9.85;3.72;;;;;;;8.31;96.79;101461.66;6212646;23;20005;-76
2024/02/02 09:04:06;;;;;;;9.15;3.13;;;;;;;8.35;97.17;101456.44;6213070;23;20042;-76
2024/02/02 09:06:44;;;;;;;9.90;3.80;;;;;;;8.30;97.36;101457.41;6212794;23;20008;-76
2024/02/02 09:09:16;;;;;;;9.13;3.60;;;;;;;8.29;97.76;101444.31;6212313;23;20075;-76
2024/02/02 09:11:47;;;;;;;13.82;3.55;;;;;;;8.35;97.51;101438.47;6211984;23;20023;-76
2024/02/02 09:14:17;;;;;;;10.07;3.15;;;;;;;8.37;97.34;101433.56;6195523;23;20023;-76
2024/02/02 09:16:49;;;;;;;9.15;3.97;;;;;;;8.24;97.64;101445.25;6186489;23;20005;-76
2024/02/02 09:19:43;;;;;;;8.88;3.60;;;;;;;8.27;97.75;101441.94;6185498;23;20455;-76
2024/02/02 09:22:15;;;;;;;9.55;4.93;;;;;;;8.31;97.64;101445.56;6210845;23;20012;-76
2024/02/02 09:24:43;;;;;;;12.20;4.07;;;;;;;8.29;98.11;101434.38;6211928;23;20016;-76
2024/02/02 09:27:35;;;;;;;6.95;3.67;;;;;;;8.42;97.95;101422.63;6211699;23;20008;-76
2024/02/02 09:30:04;;;;;;;5.68;3.38;;;;;;;8.36;98.09;101421.25;6221447;23;20013;-75
2024/02/02 09:32:30;;;;;;;6.65;3.58;;;;;;;8.27;99.27;101420.47;6220167;23;20032;-75
2024/02/02 09:35:00;;;;;;;8.18;3.50;;;;;;;8.24;98.62;101415.72;6219726;23;20364;-76
2024/02/02 09:37:49;;;;;;;7.40;3.35;;;;;;;8.30;98.31;101413.69;6212686;23;20411;-76
2024/02/02 09:40:45;;;;;;;12.15;3.78;;;;;;;8.21;98.71;101416.34;6185549;23;20012;-76
2024/02/02 09:43:26;;;;;;;6.75;3.53;;;;;;;8.30;98.75;101402.97;6221933;23;20005;-76
2024/02/02 09:46:05;;;;;;;5.47;3.85;;;;;;;8.31;98.69;101399.16;6212787;23;20356;-76
2024/02/02 09:48:54;;;;;;;14.75;4.00;;;;;;;8.32;98.77;101398.06;6195717;23;20380;-76
2024/02/02 09:51:38;;;;;;;6.97;4.13;;;;;;;8.17;99.51;101393.97;6184993;23;20439;-76
2024/02/02 09:54:14;;;;;;;6.13;3.67;;;;;;;8.36;98.70;101397.13;6185965;23;20023;-76
2024/02/02 09:56:56;;;;;;;12.10;4.18;;;;;;;8.29;99.83;101396.81;6214200;23;20004;-76
2024/02/02 09:59:40;;;;;;;7.50;3.78;;;;;;;8.33;99.83;101387.00;6187055;23;20016;-76
2024/02/02 10:02:28;;;;;;;12.13;3.30;;;;;;;8.30;99.70;101402.97;6212900;23;20055;-76
2024/02/02 10:05:06;;;;;;;12.27;4.50;;;;;;;8.19;99.92;101392.53;6213222;23;20013;-76
2024/02/02 10:07:51;;;;;;;12.27;4.93;;;;;;;8.32;100.00;101390.81;6213102;23;20016;-76
2024/02/02 10:10:35;;;;;;;10.15;3.40;;;;;;;8.23;100.00;101394.59;6156633;23;20066;-76
2024/02/02 10:13:16;;;;;;;7.57;3.45;;;;;;;8.21;100.00;101393.00;6212341;23;20063;-76
2024/02/02 10:16:04;;;;;;;10.32;4.65;;;;;;;8.31;100.00;101396.47;6212667;23;20070;-76
2024/02/02 10:18:40;;;;;;;8.82;4.15;;;;;;;8.43;99.93;101386.66;6222640;23;20355;-76
2024/02/02 10:21:18;;;;;;;14.73;4.22;;;;;;;8.39;99.66;101385.72;6213081;23;20013;-75
2024/02/02 10:24:27;;;;;;;10.98;4.30;;;;;;;8.55;99.70;101377.94;6186512;23;20013;-76
2024/02/02 10:27:04;;;;;;;9.82;4.10;;;;;;;8.61;99.14;101374.75;6211894;23;20008;-76
2024/02/02 10:29:34;;;;;;;10.20;4.70;;;;;;;8.60;98.70;101365.09;6222749;23;20019;-76
2024/02/02 10:32:27;;;;;;;10.98;4.35;;;;;;;8.66;98.64;101363.81;6211899;23;20019;-76
2024/02/02 10:35:11;;;;;;;10.43;3.72;;;;;;;8.65;98.17;101367.59;6183325;23;20012;-76
2024/02/02 10:37:38;;;;;;;10.27;4.20;;;;;;;8.63;97.57;101369.81;6221085;23;20459;-76
2024/02/02 10:40:21;;;;;;;11.15;4.20;;;;;;;8.69;97.81;101352.41;6194045;23;20000;-76
2024/02/02 10:43:12;;;;;;;8.00;3.75;;;;;;;8.78;96.68;101361.22;6212721;23;20193;-76
2024/02/02 10:45:46;;;;;;;18.83;5.55;;;;;;;8.73;97.10;101350.66;6222888;23;20436;-77
2024/02/02 10:48:31;;;;;;;10.95;4.45;;;;;;;8.66;97.49;101358.44;6184361;23;20017;-76
2024/02/02 10:51:02;;;;;;;10.05;4.47;;;;;;;8.78;97.21;101361.22;6220820;23;20019;-76
2024/02/02 10:54:15;;;;;;;9.20;4.88;;;;;;;8.78;96.98;101349.69;6161099;23;20016;-79
2024/02/02 10:57:16;;;;;;;12.75;5.03;;;;;;;8.65;97.11;101351.47;6145155;23;20016;-76
2024/02/02 11:00:13;;;;;;;15.65;4.88;;;;;;;8.52;97.86;101335.59;6185502;23;20388;-76
2024/02/02 11:02:54;;;;;;;10.70;4.10;;;;;;;8.55;98.36;101351.88;6207248;23;20382;-75
2024/02/02 11:05:38;;;;;;;9.25;3.90;;;;;;;8.69;97.25;101335.53;6221119;23;20016;-75
2024/02/02 11:08:08;;;;;;;10.02;3.80;;;;;;;8.68;97.96;101345.47;6211994;23;20008;-76
2024/02/02 11:11:13;;;;;;;15.05;4.70;;;;;;;8.66;97.44;101342.34;6212371;23;20273;-76
2024/02/02 11:14:00;;;;;;;12.05;4.10;;;;;;;8.65;97.62;101338.06;6191135;23;20089;-76
2024/02/02 11:17:07;;;;;;;10.57;4.53;;;;;;;8.62;97.74;101325.31;6185499;23;20039;-76
2024/02/02 11:19:59;;;;;;;10.13;4.95;;;;;;;8.47;98.24;101323.19;6119797;23;20014;-76
2024/02/02 11:22:45;;;;;;;9.25;4.50;;;;;;;8.59;98.17;101319.78;6217488;23;20043;-76
2024/02/02 11:25:21;;;;;;;13.02;4.53;;;;;;;8.81;97.07;101322.97;6161121;23;20009;-75
2024/02/02 11:28:06;;;;;;;11.55;4.57;;;;;;;8.93;96.39;101341.84;6211180;23;20415;-76
2024/02/02 11:30:55;;;;;;;5.32;3.28;;;;;;;8.91;96.53;101327.97;6186390;23;20087;-75
2024/02/02 11:33:39;;;;;;;8.68;4.55;;;;;;;8.90;96.06;101323.69;6212118;23;20020;-76
2024/02/02 11:36:23;;;;;;;10.20;3.88;;;;;;;8.86;96.90;101320.09;6222396;23;20008;-76
2024/02/02 11:39:28;;;;;;;6.95;3.60;;;;;;;8.91;96.49;101309.16;6221362;23;20396;-75
2024/02/02 11:41:57;;;;;;;10.85;4.10;;;;;;;8.82;97.14;101319.19;6212823;23;20332;-75
2024/02/02 11:44:24;;;;;;;10.50;4.63;;;;;;;8.80;97.56;101313.34;6182738;23;20313;-75
2024/02/02 11:46:50;;;;;;;8.20;3.92;;;;;;;8.75;97.53;101302.03;6182294;23;20012;-75
2024/02/02 11:49:22;;;;;;;4.43;3.10;;;;;;;8.75;97.47;101297.41;6184514;23;20356;-76
2024/02/02 11:51:54;;;;;;;14.07;5.32;;;;;;;8.87;97.49;101300.19;6211418;23;20024;-77
2024/02/02 11:54:24;;;;;;;10.63;4.38;;;;;;;8.89;97.16;101276.47;6220103;23;20055;-76
2024/02/02 11:56:51;;;;;;;11.40;4.10;;;;;;;8.94;97.18;101288.94;6220568;23;20009;-76
2024/02/02 11:59:27;;;;;;;10.30;3.53;;;;;;;9.02;96.85;101280.00;6183117;23;20075;-76
2024/02/02 12:02:13;;;;;;;6.18;3.85;;;;;;;9.02;96.88;101280.00;6185743;23;20344;-76
2024/02/02 12:04:49;;;;;;;11.98;5.20;;;;;;;9.08;96.81;101284.84;6222197;23;20463;-76
2024/02/02 12:07:32;;;;;;;8.50;4.03;;;;;;;9.03;96.74;101278.91;6220737;23;20012;-77
2024/02/02 12:10:02;;;;;;;12.30;4.22;;;;;;;9.09;95.83;101288.31;6195311;23;20023;-77
2024/02/02 12:12:33;;;;;;;8.52;3.95;;;;;;;9.05;96.54;101296.25;6212228;23;20012;-76
2024/02/02 12:14:59;;;;;;;;;;;;;;;9.04;97.12;101283.13;6212695;23;20028;-77
2024/02/02 12:17:25;;;;;;;10.27;4.20;;;;;;;9.08;96.86;101282.16;6213302;23;19911;-76
2024/02/02 12:19:51;;;;;;;13.25;4.35;;;;;;;9.18;96.16;101262.16;6213010;23;20009;-77
2024/02/02 12:22:18;;;;;;;7.55;3.85;;;;;;;9.01;96.28;101273.84;6221245;23;20067;-77
2024/02/02 12:24:44;;;;;;;10.50;4.32;;;;;;;9.02;96.88;101270.03;6222974;23;20012;-77
2024/02/02 12:27:09;;;;;;;11.52;4.55;;;;;;;9.08;97.34;101252.63;6223400;23;20008;-76
2024/02/02 12:29:36;;;;;;;8.00;3.72;;;;;;;9.03;97.78;101255.50;6212966;23;20067;-77
2024/02/02 12:32:03;;;;;;;7.47;4.00;;;;;;;9.13;97.30;101254.31;6222517;23;20000;-76
2024/02/02 12:34:29;;;;;;;7.25;3.88;;;;;;;9.05;97.71;101253.28;6211880;23;20020;-76
2024/02/02 12:36:57;;;;;;;13.32;3.55;;;;;;;8.92;99.13;101235.50;6212460;23;20007;-76
2024/02/02 12:39:23;;;;;;;14.25;4.65;;;;;;;8.96;98.73;101241.81;6209996;23;20470;-76
2024/02/02 12:41:50;;;;;;;10.10;4.53;;;;;;;8.96;98.58;101222.25;6183178;23;20000;-76
2024/02/02 12:44:15;;;;;;;6.35;4.20;;;;;;;9.10;98.60;101234.25;6211210;23;20092;-76
2024/02/02 12:46:44;;;;;;;14.95;4.50;;;;;;;9.21;98.13;101218.53;6209799;23;20031;-76
2024/02/02 12:49:11;;;;;;;11.48;3.03;;;;;;;8.95;98.13;101218.75;6210894;23;20079;-76
2024/02/02 12:51:36;;;;;;;7.72;3.83;;;;;;;9.02;98.94;101200.19;6210932;23;20001;-77
2024/02/02 12:54:03;;;;;;;9.13;4.32;;;;;;;9.10;98.49;101210.09;6212068;23;20020;-77
2024/02/02 12:56:28;;;;;;;8.52;4.05;;;;;;;9.05;98.45;101223.72;6182299;23;20032;-77
2024/02/02 12:58:55;;;;;;;14.25;3.83;;;;;;;9.03;99.10;101217.91;6220582;23;20004;-78
2024/02/02 13:01:21;;;;;;;6.18;3.28;;;;;;;9.23;98.27;101218.97;6212278;23;20347;-76
2024/02/02 13:03:46;;;;;;;11.40;4.65;;;;;;;9.20;98.05;101219.63;6213346;23;20012;-77
2024/02/02 13:06:13;;;;;;;9.10;5.10;;;;;;;9.23;98.10;101220.88;6222887;23;20380;-84
2024/02/02 13:08:40;;;;;;;8.50;3.88;;;;;;;9.08;98.26;101230.31;6212720;23;20015;-77
2024/02/02 13:11:08;;;;;;;10.73;4.85;;;;;;;9.20;98.27;101221.53;6185797;23;20054;-77
2024/02/02 13:13:36;;;;;;;17.05;5.03;;;;;;;9.14;98.81;101220.19;6186772;23;20333;-76
2024/02/02 13:16:05;;;;;;;8.07;3.33;;;;;;;9.31;97.77;101225.38;6213579;23;20012;-77
2024/02/02 13:18:35;;;;;;;7.25;3.05;;;;;;;9.26;97.73;101206.75;6179640;23;20413;-77
2024/02/02 13:21:01;;;;;;;17.27;3.20;;;;;;;9.23;98.52;101205.56;6205278;23;20016;-77
2024/02/02 13:23:28;;;;;;;10.88;3.67;;;;;;;9.21;98.33;101201.63;6179928;23;20005;-76
2024/02/02 13:26:03;;;;;;;7.45;2.75;;;;;;;9.31;97.96;101203.88;6159915;23;20017;-76
2024/02/02 13:28:38;;;;;;;5.15;2.85;;;;;;;9.21;98.61;101191.66;6195517;23;20012;-78
2024/02/02 13:31:11;;;;;;;11.93;3.63;;;;;;;9.24;98.85;101190.19;6181039;23;20039;-75
2024/02/02 13:33:38;;;;;;;5.22;3.03;;;;;;;9.33;98.69;101172.09;6183164;23;20019;-76
2024/02/02 13:36:09;;;;;;;12.95;3.78;;;;;;;9.46;97.75;101184.44;6208635;23;20063;-76
2024/02/02 13:38:35;;;;;;;8.63;3.47;;;;;;;9.26;98.22;101164.56;6181567;23;20420;-72
2024/02/02 13:41:01;;;;;;;9.85;5.53;;;;;;;9.21;100.00;101155.94;6212874;23;20143;-77
2024/02/02 13:43:27;;;;;;;8.40;2.67;;;;;;;9.36;99.26;101161.44;6184921;23;20347;-76
2024/02/02 13:46:05;;;;;;;8.05;3.90;;;;;;;9.47;98.98;101151.03;6210765;23;20009;-76
2024/02/02 13:48:35;;;;;;;7.20;2.95;;;;;;;9.37;98.82;101130.00;6205716;23;20023;-77
2024/02/02 13:51:02;;;;;;;5.38;3.33;;;;;;;9.45;98.66;101143.31;6215961;23;20450;-76
2024/02/02 13:53:28;;;;;;;7.90;2.83;;;;;;;9.54;97.92;101122.47;6205868;23;20019;-76
2024/02/02 13:55:55;;;;;;;6.43;3.03;;;;;;;9.67;97.27;101129.44;6181692;23;20012;-76
2024/02/02 13:58:21;;;;;;;9.00;2.85;;;;;;;9.71;97.55;101124.97;6203266;23;20004;-75
2024/02/02 14:00:47;;;;;;;9.18;3.47;;;;;;;9.49;98.75;101143.41;6214431;23;20012;-76
2024/02/02 14:03:19;;;;;;;4.50;2.45;;;;;;;9.63;98.37;101130.44;6205686;23;20458;-75
2024/02/02 14:05:45;;;;;;;7.80;3.58;;;;;;;9.58;98.56;101133.38;6188744;23;20028;-76
2024/02/02 14:08:11;;;;;;;5.30;2.95;;;;;;;9.42;99.24;101117.13;6216342;23;20004;-76
2024/02/02 14:10:46;;;;;;;10.73;3.13;;;;;;;9.38;100.00;101107.34;6215706;23;20012;-76
2024/02/02 14:13:13;;;;;;;8.52;2.92;;;;;;;9.57;99.44;101119.13;6178831;23;20470;-76
2024/02/02 14:15:39;;;;;;;12.77;3.25;;;;;;;9.56;99.44;101112.16;6182812;23;20001;-77
2024/02/02 14:18:05;;;;;;;3.83;2.55;;;;;;;9.65;99.25;101120.13;6209089;23;20371;-79
2024/02/02 14:20:31;;;;;;;9.10;3.22;;;;;;;9.63;98.99;101112.41;6179388;23;20032;-76
2024/02/02 14:22:57;;;;;;;16.33;3.55;;;;;;;9.55;99.75;101107.13;6180168;23;20008;-78
2024/02/02 14:25:29;;;;;;;6.30;2.90;;;;;;;9.50;99.79;101118.91;6207392;23;20011;-79
2024/02/02 14:27:54;;;;;;;7.65;3.22;;;;;;;9.38;100.00;101108.16;6220570;23;20013;-77
2024/02/02 14:30:20;;;;;;;9.80;3.28;;;;;;;9.78;99.36;101110.94;6220974;23;20336;-77
2024/02/02 14:32:46;;;;;;;10.90;3.83;;;;;;;9.77;99.41;101112.06;6209501;23;20083;-77
2024/02/02 14:35:12;;;;;;;4.78;2.55;;;;;;;9.68;99.49;101103.31;6183137;23;20013;-77
2024/02/02 14:37:38;;;;;;;5.65;3.00;;;;;;;9.60;99.77;101106.94;6183530;23;20009;-76
2024/02/02 14:40:04;;;;;;;11.93;3.67;;;;;;;9.65;99.90;101110.16;6210240;23;20054;-77
2024/02/02 14:42:30;;;;;;;5.18;3.20;;;;;;;9.79;99.86;101112.53;6181258;23;20016;-77
2024/02/02 14:44:58;;;;;;;13.65;3.47;;;;;;;9.73;99.81;101097.72;6209272;23;20067;-77
2024/02/02 14:47:24;;;;;;;15.30;3.53;;;;;;;9.90;98.84;101111.72;6185159;23;20017;-77
2024/02/02 14:49:49;;;;;;;15.95;4.47;;;;;;;9.73;99.12;101100.41;6185497;23;20012;-77
2024/02/02 14:52:15;;;;;;;9.23;3.33;;;;;;;9.91;99.54;101105.19;6195409;23;20016;-79
2024/02/02 14:54:40;;;;;;;7.90;3.17;;;;;;;9.76;100.00;101105.91;6222374;23;20444;-77
2024/02/02 14:57:06;;;;;;;13.57;3.15;;;;;;;9.82;100.00;101103.75;6213044;23;20079;-77
2024/02/02 14:59:40;;;;;;;9.57;3.15;;;;;;;9.74;100.00;101112.72;6213338;23;20012;-77
2024/02/02 15:02:10;;;;;;;5.65;2.88;;;;;;;9.73;100.00;101111.19;6222719;23;20013;-77
2024/02/02 15:04:35;;;;;;;10.93;3.15;;;;;;;9.91;100.00;101125.97;6186087;23;20020;-77
2024/02/02 15:07:04;;;;;;;8.18;3.38;;;;;;;9.82;100.00;101115.31;6211536;23;20019;-77
2024/02/02 15:09:30;;;;;;;8.40;3.05;;;;;;;9.75;100.00;101119.69;6207213;23;20012;-77
2024/02/02 15:11:56;;;;;;;10.35;3.30;;;;;;;9.81;100.00;101126.41;6185233;23;20020;-77
2024/02/02 15:14:22;;;;;;;9.30;3.45;;;;;;;9.88;100.00;101118.56;6185213;23;20363;-77
2024/02/02 15:16:47;;;;;;;8.30;3.70;;;;;;;9.99;100.00;101123.13;6210883;23;20695;-77
2024/02/02 15:19:13;;;;;;;13.95;4.97;;;;;;;9.83;100.00;101121.47;6183373;23;20514;-77
2024/02/02 15:21:38;;;;;;;7.72;3.50;;;;;;;9.90;100.00;101124.38;6193535;23;20013;-77
2024/02/02 15:24:04;;;;;;;11.80;4.85;;;;;;;9.85;100.00;101121.94;6210415;23;20008;-77
2024/02/02 15:26:40;;;;;;;11.80;2.53;;;;;;;9.92;100.00;101124.81;6218855;23;20012;-76
2024/02/02 15:29:05;;;;;;;8.45;3.30;;;;;;;9.83;100.00;101124.16;6217921;23;20063;-77
2024/02/02 15:31:32;;;;;;;7.65;3.35;;;;;;;9.92;100.00;101122.13;6219940;23;20000;-77
2024/02/02 15:33:58;;;;;;;11.05;3.00;;;;;;;9.94;100.00;101119.88;6194970;23;20019;-77
2024/02/02 15:36:25;;;;;;;9.05;4.00;;;;;;;9.86;100.00;101118.91;6185288;23;20006;-77
2024/02/02 15:38:51;;;;;;;5.97;3.03;;;;;;;9.86;100.00;101113.50;6210155;23;19996;-77
2024/02/02 15:41:18;;;;;;;7.88;3.50;;;;;;;9.85;100.00;101108.47;6210551;23;20008;-77
2024/02/02 15:43:43;;;;;;;6.47;2.88;;;;;;;9.89;100.00;101104.75;6212595;23;20277;-77
2024/02/02 15:46:12;;;;;;;13.35;3.47;;;;;;;9.85;100.00;101108.47;6210755;23;20000;-77
2024/02/02 15:48:38;;;;;;;6.78;3.03;;;;;;;9.81;100.00;101110.28;6221242;23;20514;-77
2024/02/02 15:51:04;;;;;;;10.85;3.08;;;;;;;9.86;100.00;101107.34;6222063;23;20012;-77
2024/02/02 15:53:31;;;;;;;4.57;3.05;;;;;;;9.88;100.00;101113.97;6212563;23;20438;-77
2024/02/02 15:55:56;;;;;;;12.48;2.45;;;;;;;9.87;100.00;101114.31;6209835;23;20012;-77
2024/02/02 15:58:22;;;;;;;4.40;2.67;;;;;;;9.75;100.00;101093.59;6219118;23;20481;-69
2024/02/02 16:00:48;;;;;;;12.18;2.92;;;;;;;9.93;100.00;101102.16;6221781;23;20414;-70
2024/02/02 16:03:13;;;;;;;6.45;2.78;;;;;;;9.87;100.00;101112.38;6222056;23;20547;-70
2024/02/02 16:05:39;;;;;;;6.20;2.90;;;;;;;10.15;100.00;101109.78;6221193;23;20008;-70
2024/02/02 16:08:05;;;;;;;5.63;2.33;;;;;;;10.06;100.00;101103.75;6221091;23;20035;-78
2024/02/02 16:10:30;;;;;;;6.60;2.40;;;;;;;10.03;100.00;101104.41;6211366;23;20025;-78
2024/02/02 16:12:56;;;;;;;6.07;1.92;;;;;;;9.95;100.00;101102.63;6212697;23;20105;-78